Time;durP1;ratioP1;P1;durP2;ratioP2;P2;SDS_P1;SDS_P2;PMS_P1;PMS_P2;Temp;Humidity;BMP_temperature;BMP_pressure;BME280_temperature;BME280_humidity;BME280_pressure;Samples;Min_cycle;Max_cycle;Signal;HPM_P1;HPM_P2
2021/03/02 00:02:24;;;;;;;12.60;7.28;;;17.10;61.20;;;;;;5029621;28;20041;-54
2021/03/02 00:04:50;;;;;;;10.57;7.38;;;17.10;61.20;;;;;;5034103;28;20096;-55
2021/03/02 00:07:16;;;;;;;11.90;7.82;;;17.10;61.30;;;;;;5034069;28;20071;-55
2021/03/02 00:09:42;;;;;;;10.45;7.07;;;17.00;61.30;;;;;;5034094;28;20151;-55
2021/03/02 00:12:09;;;;;;;11.45;7.53;;;17.00;61.50;;;;;;5033965;28;20367;-54
2021/03/02 00:14:36;;;;;;;11.23;7.68;;;17.00;61.40;;;;;;5034055;28;20045;-55
2021/03/02 00:17:04;;;;;;;9.65;7.18;;;17.00;61.50;;;;;;5034404;28;20079;-55
2021/03/02 00:19:40;;;;;;;11.15;7.10;;;17.00;61.50;;;;;;5033078;28;20021;-54
2021/03/02 00:22:20;;;;;;;11.18;7.13;;;16.90;61.50;;;;;;5023756;28;20049;-55
2021/03/02 00:24:50;;;;;;;11.85;7.38;;;16.90;61.50;;;;;;5012838;28;20026;-55
2021/03/02 00:27:17;;;;;;;10.13;6.63;;;16.90;61.60;;;;;;5026744;28;20509;-55
2021/03/02 00:29:43;;;;;;;12.02;7.55;;;16.90;61.60;;;;;;5034011;28;20037;-55
2021/03/02 00:32:10;;;;;;;10.63;7.18;;;16.90;61.70;;;;;;5033379;28;20437;-55
2021/03/02 00:34:35;;;;;;;10.80;7.43;;;16.80;61.60;;;;;;5033373;28;20108;-54
2021/03/02 00:37:01;;;;;;;12.38;7.10;;;16.80;61.70;;;;;;5033574;28;20100;-55
2021/03/02 00:39:26;;;;;;;11.52;7.47;;;16.80;61.70;;;;;;5033590;28;20033;-55
2021/03/02 00:41:52;;;;;;;11.55;7.07;;;16.80;61.80;;;;;;5033038;28;20486;-55
2021/03/02 00:44:17;;;;;;;13.32;7.90;;;16.70;61.80;;;;;;5033509;28;20030;-56
2021/03/02 00:46:43;;;;;;;10.98;7.00;;;16.70;61.80;;;;;;5033533;28;20029;-55
2021/03/02 00:49:08;;;;;;;10.13;7.05;;;16.70;61.80;;;;;;5033126;28;20032;-55
2021/03/02 00:51:34;;;;;;;10.57;7.03;;;16.70;61.80;;;;;;5033105;28;20090;-55
2021/03/02 00:57:21;;;;;;;10.02;7.18;;;16.70;61.80;;;;;;5022813;28;20031;-54
2021/03/02 00:59:47;;;;;;;9.77;7.00;;;16.60;61.70;;;;;;5032494;28;20116;-55
2021/03/02 01:02:12;;;;;;;11.18;7.20;;;16.60;61.70;;;;;;5032984;28;20030;-55
2021/03/02 01:05:28;;;;;;;12.07;7.50;;;16.60;61.70;;;;;;5032383;28;20509;-55
2021/03/02 01:07:53;;;;;;;11.27;6.75;;;16.60;61.80;;;;;;5013066;28;20125;-54
2021/03/02 01:10:20;;;;;;;10.05;6.60;;;16.60;61.90;;;;;;5028198;28;20116;-55
2021/03/02 01:12:45;;;;;;;10.60;6.97;;;16.50;61.80;;;;;;5032984;28;20048;-54
2021/03/02 01:15:11;;;;;;;11.43;6.72;;;16.60;61.90;;;;;;5032835;28;20040;-55
2021/03/02 01:17:37;;;;;;;10.25;6.60;;;16.50;61.90;;;;;;5032905;28;20091;-54
2021/03/02 01:20:04;;;;;;;9.40;6.57;;;16.50;61.90;;;;;;5032865;28;20503;-54
2021/03/02 01:22:30;;;;;;;9.15;6.55;;;16.50;61.90;;;;;;5033066;28;20028;-54
2021/03/02 01:24:55;;;;;;;10.90;7.13;;;16.50;61.90;;;;;;5031938;28;20033;-54
2021/03/02 01:27:21;;;;;;;9.60;6.72;;;16.50;61.90;;;;;;5032351;28;20037;-55
2021/03/02 01:29:46;;;;;;;10.45;7.10;;;16.40;61.90;;;;;;5032834;28;20461;-55
2021/03/02 01:32:12;;;;;;;11.27;6.57;;;16.40;62.00;;;;;;5032863;28;20063;-55
2021/03/02 01:34:37;;;;;;;11.18;6.88;;;16.40;62.00;;;;;;5032584;28;20025;-55
2021/03/02 01:37:03;;;;;;;11.05;6.57;;;16.40;62.00;;;;;;5032006;28;20034;-55
2021/03/02 01:42:50;;;;;;;9.82;6.40;;;16.40;62.00;;;;;;5011950;28;20076;-53
2021/03/02 01:45:18;;;;;;;10.15;6.82;;;16.40;62.10;;;;;;5012753;28;20430;-55
2021/03/02 01:47:47;;;;;;;9.85;6.43;;;16.30;62.10;;;;;;5026100;28;20091;-55
2021/03/02 01:50:13;;;;;;;10.82;6.32;;;16.30;62.10;;;;;;5032183;28;20053;-55
2021/03/02 01:52:39;;;;;;;11.15;6.75;;;16.30;62.10;;;;;;5032102;28;20545;-54
2021/03/02 01:55:07;;;;;;;10.65;7.00;;;16.30;62.10;;;;;;5032085;28;20026;-54
2021/03/02 01:57:33;;;;;;;10.68;6.95;;;16.30;62.20;;;;;;5031892;28;20096;-54
2021/03/02 02:00:03;;;;;;;9.45;6.57;;;16.30;62.10;;;;;;5032393;28;20461;-55
2021/03/02 02:02:43;;;;;;;11.88;6.65;;;16.30;62.20;;;;;;5031980;28;20112;-55
2021/03/02 02:05:14;;;;;;;12.65;6.90;;;16.30;62.10;;;;;;5031816;28;20025;-54
2021/03/02 02:07:43;;;;;;;9.00;5.90;;;16.20;62.20;;;;;;5030421;28;20040;-54
2021/03/02 02:10:21;;;;;;;8.57;6.18;;;16.20;62.20;;;;;;5032014;28;20026;-54
2021/03/02 02:13:05;;;;;;;9.05;6.53;;;16.20;62.30;;;;;;5031617;28;20055;-52
2021/03/02 02:15:34;;;;;;;10.73;6.60;;;16.20;62.30;;;;;;5032159;28;20386;-54
2021/03/02 02:18:09;;;;;;;9.75;6.20;;;16.20;62.30;;;;;;5031277;28;20033;-55
2021/03/02 02:21:28;;;;;;;11.50;6.78;;;16.20;62.80;;;;;;5031592;28;20442;-53
2021/03/02 02:27:16;;;;;;;10.32;5.97;;;16.10;62.20;;;;;;5030638;28;20068;-54
2021/03/02 02:33:05;;;;;;;9.65;6.03;;;16.10;62.20;;;;;;5030328;28;20041;-54
2021/03/02 02:35:32;;;;;;;10.27;6.60;;;16.10;62.10;;;;;;5031818;28;20025;-54
2021/03/02 02:41:21;;;;;;;8.73;6.15;;;16.10;62.20;;;;;;5031213;28;20028;-54
2021/03/02 02:43:50;;;;;;;10.30;6.47;;;16.10;62.20;;;;;;5031063;28;20083;-55
2021/03/02 02:46:17;;;;;;;10.02;6.28;;;16.10;62.20;;;;;;5031489;28;20041;-54
2021/03/02 02:48:58;;;;;;;9.60;6.07;;;16.00;62.20;;;;;;5030762;28;20029;-54
2021/03/02 02:51:24;;;;;;;8.68;6.28;;;16.00;62.20;;;;;;5029952;28;20030;-55
2021/03/02 02:53:50;;;;;;;9.73;6.05;;;16.00;62.20;;;;;;5024697;28;20034;-55
2021/03/02 02:59:41;;;;;;;9.30;6.22;;;16.00;62.20;;;;;;5029168;28;20075;-56
2021/03/02 03:02:33;;;;;;;8.68;6.25;;;16.00;62.20;;;;;;5031045;28;20503;-55
2021/03/02 03:05:08;;;;;;;8.00;6.10;;;16.00;62.10;;;;;;5029195;28;20056;-56
2021/03/02 03:10:58;;;;;;;10.90;6.72;;;15.90;62.10;;;;;;5029543;28;20041;-56
2021/03/02 03:13:28;;;;;;;9.52;5.80;;;15.90;62.10;;;;;;5031164;28;20442;-55
2021/03/02 03:15:58;;;;;;;10.18;6.25;;;15.90;62.10;;;;;;5031030;28;20036;-56
2021/03/02 03:21:31;;;;;;;9.77;6.25;;;15.90;62.20;;;;;;5007635;28;20139;-56
2021/03/02 03:23:58;;;;;;;10.48;6.30;;;15.90;62.20;;;;;;5032021;28;20029;-56
2021/03/02 03:26:26;;;;;;;10.15;5.97;;;15.90;62.20;;;;;;5035229;28;20021;-56
2021/03/02 03:29:29;;;;;;;9.75;6.00;;;15.90;62.20;;;;;;5034901;28;20467;-55
2021/03/02 03:31:58;;;;;;;9.32;6.38;;;15.90;62.20;;;;;;5033610;28;20041;-56
2021/03/02 03:34:24;;;;;;;8.73;5.85;;;15.90;62.30;;;;;;5034656;28;20065;-56
2021/03/02 03:36:49;;;;;;;9.48;6.25;;;15.90;62.30;;;;;;5034312;28;20084;-56
2021/03/02 03:39:15;;;;;;;8.73;5.80;;;15.80;62.20;;;;;;5035084;28;20092;-55
2021/03/02 03:41:41;;;;;;;8.75;6.20;;;15.80;62.30;;;;;;5033309;28;20017;-56
2021/03/02 03:44:06;;;;;;;9.88;5.90;;;15.80;62.30;;;;;;5033709;28;20029;-56
2021/03/02 03:46:32;;;;;;;9.70;6.50;;;15.80;62.30;;;;;;5033135;28;20061;-54
2021/03/02 03:48:57;;;;;;;10.05;6.45;;;15.80;62.30;;;;;;5033332;28;20029;-55
2021/03/02 03:51:26;;;;;;;9.50;6.40;;;15.80;62.90;;;;;;5034478;28;20074;-56
2021/03/02 03:53:52;;;;;;;8.27;5.70;;;15.80;62.30;;;;;;5033811;28;20035;-55
2021/03/02 03:56:19;;;;;;;9.05;6.28;;;15.80;62.40;;;;;;5034658;28;20108;-55
2021/03/02 03:58:46;;;;;;;9.02;6.15;;;15.70;62.30;;;;;;5032993;28;20036;-56
2021/03/02 04:01:12;;;;;;;9.18;6.50;;;15.70;62.30;;;;;;5034391;28;20088;-55
2021/03/02 04:03:39;;;;;;;9.88;5.75;;;15.70;62.30;;;;;;5034214;28;20033;-56
2021/03/02 04:06:05;;;;;;;8.63;5.82;;;15.70;62.30;;;;;;5034580;28;20033;-55
2021/03/02 04:08:31;;;;;;;8.88;6.38;;;15.70;62.30;;;;;;5028042;28;20491;-55
2021/03/02 04:14:19;;;;;;;9.77;6.18;;;15.70;62.30;;;;;;5031085;28;20117;-56
2021/03/02 04:16:44;;;;;;;10.25;6.05;;;15.70;62.30;;;;;;5033840;28;20045;-56
2021/03/02 04:19:10;;;;;;;8.50;5.90;;;15.70;62.30;;;;;;5033752;28;20487;-56
2021/03/02 04:21:36;;;;;;;9.73;6.22;;;15.70;62.40;;;;;;5032575;28;20033;-55
2021/03/02 04:24:01;;;;;;;9.32;6.07;;;15.70;62.40;;;;;;5033317;28;20464;-55
2021/03/02 04:26:27;;;;;;;9.88;6.40;;;15.70;62.40;;;;;;5032189;28;20120;-55
2021/03/02 04:28:52;;;;;;;8.50;5.60;;;15.60;62.30;;;;;;5033371;28;20037;-55
2021/03/02 04:31:18;;;;;;;9.98;6.10;;;15.60;62.30;;;;;;5033482;28;20043;-54
2021/03/02 04:33:43;;;;;;;9.60;6.57;;;15.60;62.30;;;;;;5014727;28;20056;-55
2021/03/02 04:36:09;;;;;;;9.10;6.00;;;15.60;62.40;;;;;;5028686;28;20025;-56
2021/03/02 04:38:35;;;;;;;9.52;5.80;;;15.60;62.40;;;;;;5033585;28;20033;-55
2021/03/02 04:41:01;;;;;;;9.68;6.18;;;15.60;62.40;;;;;;5033345;28;20078;-55
2021/03/02 04:43:26;;;;;;;9.88;6.32;;;15.60;62.30;;;;;;5032357;28;20057;-55
2021/03/02 04:45:52;;;;;;;9.45;6.07;;;15.60;62.30;;;;;;5032233;28;20034;-55
2021/03/02 04:48:18;;;;;;;8.68;6.20;;;15.60;62.10;;;;;;5027410;28;20030;-55
2021/03/02 04:50:43;;;;;;;9.18;6.20;;;15.60;62.10;;;;;;5029573;28;20079;-55
2021/03/02 04:53:09;;;;;;;8.50;5.72;;;15.50;62.10;;;;;;5032641;28;20068;-55
2021/03/02 04:55:34;;;;;;;9.65;6.32;;;15.60;62.10;;;;;;5033062;28;20022;-55
2021/03/02 04:58:00;;;;;;;9.68;5.72;;;15.60;62.20;;;;;;5032477;28;20041;-55
2021/03/02 05:00:26;;;;;;;9.52;6.25;;;15.50;62.20;;;;;;5033041;28;20044;-56
2021/03/02 05:02:51;;;;;;;8.98;6.00;;;15.50;62.20;;;;;;5032582;28;20033;-55
2021/03/02 05:05:17;;;;;;;9.50;6.32;;;15.50;62.20;;;;;;5032700;28;20033;-55
2021/03/02 05:07:42;;;;;;;9.15;6.20;;;15.50;62.20;;;;;;5032856;28;20060;-55
2021/03/02 05:10:08;;;;;;;10.20;6.60;;;15.50;62.70;;;;;;5033207;28;20030;-55
2021/03/02 05:12:34;;;;;;;11.30;6.32;;;15.50;62.10;;;;;;5032638;28;20064;-54
2021/03/02 05:14:59;;;;;;;8.73;5.93;;;15.50;62.10;;;;;;5032735;28;20034;-56
2021/03/02 05:17:25;;;;;;;9.65;6.22;;;15.50;62.10;;;;;;5032401;28;20514;-54
2021/03/02 05:19:50;;;;;;;9.73;6.00;;;15.50;62.10;;;;;;5031622;28;20022;-55
2021/03/02 05:22:16;;;;;;;8.75;6.10;;;15.50;62.10;;;;;;5031519;28;20375;-56
2021/03/02 05:24:42;;;;;;;9.63;6.20;;;15.50;62.20;;;;;;5032560;28;20025;-55
2021/03/02 05:27:07;;;;;;;9.88;5.65;;;15.50;62.20;;;;;;5031428;28;20030;-55
2021/03/02 05:29:33;;;;;;;10.00;6.10;;;15.50;62.80;;;;;;5032001;28;20079;-55
2021/03/02 05:31:59;;;;;;;9.82;6.50;;;15.50;62.20;;;;;;5018549;28;20044;-55
2021/03/02 05:34:24;;;;;;;8.65;5.95;;;15.50;62.30;;;;;;5025403;28;20025;-55
2021/03/02 05:36:50;;;;;;;9.70;6.10;;;15.40;62.30;;;;;;5033005;28;20048;-55
2021/03/02 05:39:15;;;;;;;9.13;6.15;;;15.40;62.30;;;;;;5021601;28;20557;-55
2021/03/02 05:41:42;;;;;;;9.13;6.13;;;15.40;62.30;;;;;;5021190;28;20057;-55
2021/03/02 05:44:13;;;;;;;8.98;5.65;;;15.40;62.30;;;;;;5030772;28;20033;-55
2021/03/02 05:46:40;;;;;;;9.77;5.63;;;15.40;62.30;;;;;;5032387;28;20490;-55
2021/03/02 05:49:08;;;;;;;9.73;5.82;;;15.40;62.40;;;;;;5030785;28;20064;-55
2021/03/02 05:51:34;;;;;;;8.70;5.97;;;15.40;62.40;;;;;;5032511;28;20380;-56
2021/03/02 05:54:00;;;;;;;9.48;5.53;;;15.40;62.40;;;;;;5031508;28;20029;-54
2021/03/02 05:56:26;;;;;;;8.77;5.85;;;15.40;62.40;;;;;;5031644;28;20036;-54
2021/03/02 05:58:52;;;;;;;8.50;5.57;;;15.40;62.40;;;;;;5032058;28;20025;-53
2021/03/02 06:01:18;;;;;;;9.90;5.47;;;15.40;62.50;;;;;;5022575;28;20076;-55
2021/03/02 06:03:43;;;;;;;8.43;5.00;;;15.40;62.70;;;;;;5027108;28;20520;-54
2021/03/02 06:06:09;;;;;;;10.00;5.45;;;15.40;62.70;;;;;;5026347;28;20034;-54
2021/03/02 06:08:35;;;;;;;8.23;5.32;;;15.40;62.60;;;;;;5023982;28;20029;-54
2021/03/02 06:11:29;;;;;;;10.52;5.40;;;15.40;62.60;;;;;;5019064;28;20033;-53
2021/03/02 06:14:19;;;;;;;9.40;5.85;;;15.40;62.80;;;;;;5022021;28;20130;-55
2021/03/02 06:16:46;;;;;;;8.90;5.47;;;15.30;62.80;;;;;;5009937;28;20486;-54
2021/03/02 06:19:12;;;;;;;9.35;5.88;;;15.40;62.80;;;;;;5026381;28;20494;-52
2021/03/02 06:21:38;;;;;;;9.55;5.80;;;15.40;62.70;;;;;;5027310;28;20114;-54
2021/03/02 06:24:04;;;;;;;8.65;5.78;;;15.40;62.70;;;;;;5014598;28;20033;-55
2021/03/02 06:26:30;;;;;;;9.15;5.60;;;15.40;62.60;;;;;;5025106;28;20037;-57
2021/03/02 06:28:57;;;;;;;9.05;5.97;;;15.50;62.60;;;;;;5026137;28;20148;-53
2021/03/02 06:31:33;;;;;;;9.07;5.22;;;15.50;62.30;;;;;;5027992;28;20104;-54
2021/03/02 06:34:19;;;;;;;10.82;5.65;;;15.60;62.40;;;;;;5021208;28;20048;-54
2021/03/02 06:36:54;;;;;;;8.48;5.75;;;15.60;62.40;;;;;;5026235;28;20021;-55
2021/03/02 06:39:34;;;;;;;11.85;6.03;;;15.70;62.30;;;;;;5025500;28;20029;-52
2021/03/02 06:42:14;;;;;;;10.27;6.30;;;15.70;62.30;;;;;;5013884;28;20037;-54
2021/03/02 06:44:50;;;;;;;10.77;6.20;;;15.80;62.20;;;;;;5025942;28;20028;-56
2021/03/02 06:47:38;;;;;;;9.55;6.03;;;15.70;62.00;;;;;;5026800;28;20037;-54
2021/03/02 06:50:20;;;;;;;10.70;6.60;;;15.70;62.10;;;;;;5024790;28;20029;-54
2021/03/02 06:52:46;;;;;;;10.52;6.18;;;15.70;62.20;;;;;;5005436;28;20388;-55
2021/03/02 06:55:14;;;;;;;11.18;6.38;;;15.70;62.30;;;;;;5028256;28;20052;-55
2021/03/02 06:57:40;;;;;;;10.68;6.68;;;15.60;62.40;;;;;;5018553;28;20038;-53
2021/03/02 07:00:06;;;;;;;9.20;6.18;;;15.60;62.40;;;;;;5027389;28;20037;-54
2021/03/02 07:02:36;;;;;;;11.38;6.47;;;15.60;62.40;;;;;;5025905;28;20353;-54
2021/03/02 07:05:18;;;;;;;13.65;6.95;;;15.60;62.30;;;;;;5025542;28;20025;-53
2021/03/02 07:07:54;;;;;;;21.52;7.22;;;15.70;62.10;;;;;;5027136;28;20069;-54
2021/03/02 07:10:21;;;;;;;18.73;7.25;;;15.70;61.90;;;;;;5025195;28;20033;-52
2021/03/02 07:12:47;;;;;;;12.35;6.15;;;15.70;61.60;;;;;;5026706;28;20124;-56
2021/03/02 07:15:17;;;;;;;15.95;6.78;;;15.70;61.70;;;;;;5027124;28;20112;-53
2021/03/02 07:17:44;;;;;;;16.25;6.90;;;15.80;61.50;;;;;;5025459;28;20025;-55
2021/03/02 07:20:13;;;;;;;13.60;6.53;;;15.80;61.40;;;;;;5028678;28;20034;-55
2021/03/02 07:22:40;;;;;;;9.95;6.22;;;15.90;61.50;;;;;;5010257;28;20040;-54
2021/03/02 07:25:10;;;;;;;11.73;5.82;;;15.90;61.30;;;;;;5026468;28;20029;-54
2021/03/02 07:27:43;;;;;;;11.40;6.47;;;15.90;61.30;;;;;;5027136;28;20399;-52
2021/03/02 07:32:40;;;;;;;12.35;6.75;;;16.00;61.20;;;;;;5020979;28;20108;-59
2021/03/02 07:35:08;;;;;;;20.33;7.00;;;16.10;61.20;;;;;;5018981;28;20489;-60
2021/03/02 07:37:33;;;;;;;14.70;6.80;;;16.20;61.10;;;;;;5021977;28;20030;-59
2021/03/02 07:40:05;;;;;;;11.85;5.65;;;16.20;61.00;;;;;;5022674;28;20375;-58
2021/03/02 07:42:31;;;;;;;12.02;6.00;;;16.30;61.10;;;;;;5002564;28;20030;-58
2021/03/02 07:45:04;;;;;;;12.93;5.80;;;16.30;61.00;;;;;;5003406;28;20549;-58
2021/03/02 07:47:42;;;;;;;11.65;5.88;;;16.40;60.90;;;;;;5002258;28;20030;-59
2021/03/02 07:50:24;;;;;;;12.70;5.55;;;16.40;60.90;;;;;;4999712;28;20038;-58
2021/03/02 07:53:24;;;;;;;10.35;5.70;;;16.50;60.90;;;;;;5001066;28;20042;-59
2021/03/02 07:56:19;;;;;;;9.25;5.40;;;16.60;60.90;;;;;;5001360;28;20496;-59
2021/03/02 07:59:05;;;;;;;11.38;5.72;;;16.60;60.80;;;;;;5002429;28;20030;-58
2021/03/02 08:01:31;;;;;;;13.18;6.47;;;16.70;60.70;;;;;;5002052;28;20498;-59
2021/03/02 08:04:15;;;;;;;9.38;5.85;;;16.70;60.70;;;;;;5001668;28;20045;-60
2021/03/02 08:06:42;;;;;;;12.40;6.13;;;16.80;60.60;;;;;;5002805;28;20280;-57
2021/03/02 08:09:26;;;;;;;11.45;6.00;;;16.80;60.60;;;;;;5005003;28;20109;-58
2021/03/02 08:11:53;;;;;;;11.35;6.00;;;16.90;60.10;;;;;;5007133;28;20042;-59
2021/03/02 08:14:22;;;;;;;11.02;5.63;;;17.00;59.70;;;;;;5008222;28;20026;-58
2021/03/02 08:16:58;;;;;;;12.25;5.63;;;17.00;60.20;;;;;;5005462;28;20272;-57
2021/03/02 08:19:37;;;;;;;9.85;5.75;;;17.10;59.90;;;;;;5024320;28;20030;-57
2021/03/02 08:22:18;;;;;;;11.40;5.95;;;17.10;59.80;;;;;;5020249;28;20029;-56
2021/03/02 08:24:58;;;;;;;11.10;6.22;;;17.20;59.30;;;;;;5007188;28;20210;-63
2021/03/02 08:27:39;;;;;;;13.33;6.57;;;17.30;58.60;;;;;;5002331;28;20045;-57
2021/03/02 08:30:13;;;;;;;20.23;6.47;;;17.50;57.80;;;;;;5010252;28;20101;-58
2021/03/02 08:32:40;;;;;;;24.35;7.07;;;17.50;58.00;;;;;;5008982;28;20074;-58
2021/03/02 08:35:30;;;;;;;20.88;7.25;;;17.60;57.80;;;;;;5011995;28;20045;-59
2021/03/02 08:37:58;;;;;;;20.60;6.47;;;17.60;57.50;;;;;;5006631;28;20051;-58
2021/03/02 08:40:25;;;;;;;31.05;6.25;;;17.60;57.20;;;;;;5005671;28;20108;-57
2021/03/02 08:43:04;;;;;;;17.77;6.50;;;17.80;57.00;;;;;;5007273;28;20033;-58
2021/03/02 08:45:34;;;;;;;19.55;6.13;;;17.90;56.30;;;;;;5007297;28;20037;-57
2021/03/02 08:48:16;;;;;;;14.88;6.25;;;17.90;56.10;;;;;;5007292;28;20021;-57
2021/03/02 08:50:43;;;;;;;16.58;6.30;;;18.10;55.80;;;;;;5005605;28;20107;-56
2021/03/02 08:53:28;;;;;;;16.10;6.55;;;18.10;55.70;;;;;;5005684;28;20030;-56
2021/03/02 08:55:54;;;;;;;14.68;6.05;;;18.10;55.70;;;;;;5006781;28;20033;-57
2021/03/02 08:58:26;;;;;;;16.30;6.40;;;18.20;55.30;;;;;;5006457;28;20399;-58
2021/03/02 09:01:18;;;;;;;15.43;6.05;;;18.30;55.10;;;;;;5019894;28;20083;-58
2021/03/02 09:03:45;;;;;;;12.90;5.72;;;18.30;55.00;;;;;;5005855;28;20793;-58
2021/03/02 09:06:26;;;;;;;18.02;7.55;;;18.40;55.00;;;;;;5008454;28;20197;-59
2021/03/02 09:09:02;;;;;;;25.58;8.38;;;18.40;54.70;;;;;;5008728;28;20398;-59
2021/03/02 09:11:30;;;;;;;26.95;8.00;;;18.60;53.70;;;;;;5010940;28;20108;-59
2021/03/02 09:13:57;;;;;;;32.70;8.80;;;18.50;53.80;;;;;;5025746;28;20103;-59
2021/03/02 09:16:29;;;;;;;22.08;7.50;;;18.40;53.80;;;;;;5024718;28;20096;-59
2021/03/02 09:19:05;;;;;;;22.73;7.50;;;18.30;54.00;;;;;;5018731;28;20491;-59
2021/03/02 09:30:57;;;;;;;19.30;6.35;;;18.20;54.00;;;;;;5055349;23;20055;-49
2021/03/02 09:46:38;;;;;;;26.20;9.38;;;18.30;53.30;;;;;;5139698;23;20518;-45
2021/03/02 09:49:04;;;;;;;24.95;8.93;;;18.30;52.70;;;;;;5019313;28;20018;-47
2021/03/02 09:51:33;;;;;;;16.38;6.97;;;18.30;53.00;;;;;;5025016;28;20017;-47
2021/03/02 09:57:21;;;;;;;14.82;6.90;;;18.20;53.60;;;;;;5024159;28;20028;-47
2021/03/02 09:59:46;;;;;;;17.08;6.32;;;18.30;53.30;;;;;;5025093;28;20033;-45
2021/03/02 10:02:12;;;;;;;15.40;7.03;;;18.30;53.50;;;;;;5028561;28;20170;-50
2021/03/02 10:04:37;;;;;;;12.48;5.90;;;18.30;53.20;;;;;;5025934;28;20391;-47
2021/03/02 10:07:10;;;;;;;15.55;6.85;;;18.30;53.30;;;;;;5024061;28;20029;-45
2021/03/02 10:09:35;;;;;;;14.18;6.45;;;18.40;52.80;;;;;;5022458;28;20117;-48
2021/03/02 10:12:12;;;;;;;16.08;6.00;;;18.30;53.00;;;;;;5025905;28;20112;-46
2021/03/02 10:14:40;;;;;;;15.88;5.78;;;18.50;53.10;;;;;;5027680;28;20029;-46
2021/03/02 10:17:06;;;;;;;12.88;6.00;;;18.40;52.70;;;;;;5025997;28;20294;-44
2021/03/02 10:19:34;;;;;;;10.60;5.90;;;18.40;52.30;;;;;;5025950;28;20117;-46
2021/03/02 10:22:01;;;;;;;12.13;6.30;;;18.50;52.10;;;;;;5025906;28;20037;-46
2021/03/02 10:24:36;;;;;;;14.43;6.63;;;18.50;52.20;;;;;;5025948;28;20041;-45
2021/03/02 10:27:14;;;;;;;12.93;6.90;;;18.50;51.60;;;;;;5025040;28;20161;-47
2021/03/02 10:29:43;;;;;;;11.82;6.40;;;18.50;51.70;;;;;;5025946;28;20534;-46
2021/03/02 10:32:10;;;;;;;13.68;6.60;;;18.60;51.70;;;;;;5024818;28;20437;-48
2021/03/02 10:34:37;;;;;;;13.60;6.15;;;18.60;51.40;;;;;;5025593;28;20402;-47
2021/03/02 10:37:04;;;;;;;17.05;6.28;;;18.60;51.80;;;;;;5025526;28;20022;-44
2021/03/02 10:39:30;;;;;;;12.73;6.68;;;18.70;51.20;;;;;;5025909;28;20030;-51
2021/03/02 10:41:56;;;;;;;10.63;5.47;;;18.70;51.40;;;;;;5024868;28;20413;-48
2021/03/02 10:44:21;;;;;;;9.95;5.47;;;18.70;51.40;;;;;;5025389;28;20037;-47
2021/03/02 10:46:48;;;;;;;12.57;6.82;;;18.70;51.30;;;;;;5025701;28;20441;-49
2021/03/02 10:49:14;;;;;;;9.60;5.93;;;18.80;50.80;;;;;;5026426;28;20041;-47
2021/03/02 10:51:40;;;;;;;10.23;6.13;;;18.80;50.90;;;;;;5023742;28;20026;-45
2021/03/02 10:54:06;;;;;;;12.80;6.15;;;18.90;50.70;;;;;;5024746;28;20549;-49
2021/03/02 10:56:31;;;;;;;12.15;6.38;;;18.90;50.80;;;;;;5025975;28;20501;-46
2021/03/02 10:58:58;;;;;;;8.63;5.18;;;18.90;50.70;;;;;;5024510;28;20029;-45
2021/03/02 11:01:24;;;;;;;9.75;5.20;;;18.90;50.90;;;;;;5024806;28;20044;-44
2021/03/02 11:03:51;;;;;;;10.50;5.57;;;19.00;51.00;;;;;;5022375;28;20494;-46
2021/03/02 11:06:18;;;;;;;10.88;5.25;;;19.00;50.20;;;;;;5023768;28;20035;-46
2021/03/02 11:08:44;;;;;;;11.68;6.00;;;19.00;50.50;;;;;;5024320;28;20026;-50
2021/03/02 11:11:11;;;;;;;10.25;5.35;;;19.00;50.60;;;;;;5024616;28;20100;-47
2021/03/02 11:13:37;;;;;;;14.75;8.15;;;19.00;50.30;;;;;;5023920;28;20490;-49
2021/03/02 11:16:03;;;;;;;12.85;8.93;;;18.90;49.20;;;;;;5024885;28;20105;-47
2021/03/02 11:18:29;;;;;;;15.45;9.60;;;18.60;49.50;;;;;;5025551;28;20032;-44
2021/03/02 11:20:54;;;;;;;16.42;9.32;;;18.30;49.50;;;;;;5024127;28;20018;-46
2021/03/02 11:23:20;;;;;;;12.32;8.18;;;18.20;49.70;;;;;;5024607;28;20180;-50
2021/03/02 13:01:54;;;;;;;22.92;7.35;;;19.10;49.00;;;;;;4986137;28;20068;-57
2021/03/02 13:04:21;;;;;;;26.55;7.75;;;19.10;48.80;;;;;;4992238;28;20078;-59
2021/03/02 13:06:47;;;;;;;21.30;7.13;;;19.20;48.80;;;;;;4991356;28;20026;-55
2021/03/02 13:09:14;;;;;;;17.27;6.55;;;19.20;49.10;;;;;;4987546;28;20365;-54
2021/03/02 13:11:39;;;;;;;18.27;6.63;;;19.10;49.10;;;;;;5000581;23;20042;-56
2021/03/02 13:14:07;;;;;;;15.68;6.57;;;19.10;49.10;;;;;;5014838;28;20040;-58
2021/03/02 13:16:33;;;;;;;17.35;6.40;;;19.10;49.20;;;;;;5012547;28;20094;-56
2021/03/02 13:18:58;;;;;;;22.05;6.05;;;19.00;49.40;;;;;;5026031;28;20021;-57
2021/03/02 13:21:24;;;;;;;16.63;6.00;;;19.00;49.40;;;;;;5019826;28;20538;-56
2021/03/02 13:23:50;;;;;;;22.50;6.95;;;19.00;49.40;;;;;;5012693;28;20041;-56
2021/03/02 13:26:18;;;;;;;21.98;5.85;;;19.10;49.50;;;;;;5017864;28;20427;-56
2021/03/02 13:28:48;;;;;;;15.45;5.28;;;19.10;49.70;;;;;;5017205;28;20585;-57
2021/03/02 13:31:14;;;;;;;12.93;5.60;;;19.00;49.70;;;;;;5006806;28;20552;-56
2021/03/02 13:33:42;;;;;;;11.73;5.25;;;18.90;49.50;;;;;;5013609;28;20033;-56
2021/03/02 13:36:10;;;;;;;12.75;4.95;;;18.80;50.00;;;;;;5031376;28;20479;-56
2021/03/02 13:38:36;;;;;;;14.13;5.38;;;18.90;50.20;;;;;;5031709;28;20032;-56
2021/03/02 13:41:03;;;;;;;15.10;5.43;;;18.80;50.20;;;;;;5013015;28;20029;-58
2021/03/02 13:43:29;;;;;;;11.43;5.32;;;18.80;50.30;;;;;;5012954;28;20049;-56
2021/03/02 13:45:56;;;;;;;10.85;4.78;;;18.80;50.60;;;;;;5013984;28;20105;-55
2021/03/02 13:48:23;;;;;;;13.38;5.10;;;18.70;50.70;;;;;;5026049;28;20393;-55
2021/03/02 13:50:51;;;;;;;11.27;4.45;;;18.70;50.80;;;;;;5032516;28;20029;-56
2021/03/02 13:53:17;;;;;;;11.98;4.75;;;18.60;51.00;;;;;;5032475;28;20074;-55
2021/03/02 13:55:46;;;;;;;10.05;4.82;;;18.60;50.90;;;;;;5032538;28;20022;-56
2021/03/02 13:58:13;;;;;;;9.73;4.45;;;18.60;51.30;;;;;;5032112;28;20040;-55
2021/03/02 14:00:38;;;;;;;11.77;4.22;;;18.50;51.30;;;;;;5032452;28;20033;-56
2021/03/02 14:03:05;;;;;;;9.75;4.75;;;18.50;51.50;;;;;;5032282;28;20029;-55
2021/03/02 14:05:32;;;;;;;12.38;4.47;;;18.50;51.60;;;;;;5032329;28;20114;-57
2021/03/02 14:08:02;;;;;;;12.20;4.60;;;18.40;51.60;;;;;;5031496;28;20021;-55
2021/03/02 14:10:28;;;;;;;10.05;4.55;;;18.40;51.70;;;;;;5030720;28;20033;-56
2021/03/02 14:12:56;;;;;;;11.00;4.72;;;18.40;51.40;;;;;;5031090;28;20490;-55
2021/03/02 14:15:22;;;;;;;11.63;4.75;;;18.40;51.70;;;;;;5016140;28;20026;-59
2021/03/02 14:17:50;;;;;;;15.95;4.88;;;18.40;51.60;;;;;;5014364;28;20033;-55
2021/03/02 14:20:17;;;;;;;13.93;4.65;;;18.50;51.40;;;;;;5027744;28;20025;-58
2021/03/02 14:22:43;;;;;;;17.00;4.63;;;18.40;51.80;;;;;;5012827;28;20100;-56
2021/03/02 14:25:10;;;;;;;14.88;5.07;;;18.30;52.00;;;;;;5010565;28;20022;-55
2021/03/02 14:27:37;;;;;;;12.77;4.30;;;18.30;52.00;;;;;;5031415;28;20025;-57
2021/03/02 14:30:06;;;;;;;12.25;4.40;;;18.30;52.20;;;;;;5031058;28;20029;-56
2021/03/02 14:32:33;;;;;;;10.98;4.22;;;18.20;52.20;;;;;;5013393;28;20017;-55
2021/03/02 14:35:00;;;;;;;10.70;3.80;;;18.30;52.30;;;;;;5030709;28;20029;-57
2021/03/02 14:37:26;;;;;;;9.70;4.18;;;18.20;52.20;;;;;;5013654;28;20025;-56
2021/03/02 14:39:52;;;;;;;8.85;3.85;;;18.20;52.30;;;;;;5013077;28;20029;-56
2021/03/02 14:42:24;;;;;;;10.15;4.07;;;18.20;52.50;;;;;;5031458;28;20030;-56
2021/03/02 14:44:57;;;;;;;8.23;3.60;;;18.20;52.50;;;;;;5026380;28;20037;-55
2021/03/02 14:47:27;;;;;;;11.18;3.42;;;18.20;52.50;;;;;;5012136;28;20017;-57
2021/03/02 14:50:01;;;;;;;9.32;3.53;;;18.20;52.60;;;;;;5018915;28;20017;-56
2021/03/02 14:52:27;;;;;;;8.95;3.25;;;18.10;52.30;;;;;;5014750;28;20032;-57
2021/03/02 14:54:56;;;;;;;7.53;3.33;;;18.10;52.30;;;;;;5031666;28;20021;-56
2021/03/02 14:57:25;;;;;;;10.20;3.90;;;18.10;52.50;;;;;;5026847;28;20030;-55
2021/03/02 14:59:52;;;;;;;16.20;3.80;;;18.10;52.20;;;;;;5003528;28;20033;-55
2021/03/02 15:02:19;;;;;;;12.63;3.25;;;18.10;52.70;;;;;;5028360;28;20107;-57
2021/03/02 15:04:48;;;;;;;12.05;3.40;;;18.20;52.60;;;;;;5030981;28;20083;-56
2021/03/02 15:07:15;;;;;;;10.25;3.42;;;18.10;52.60;;;;;;5010108;28;20118;-58
2021/03/02 15:09:42;;;;;;;15.07;4.05;;;18.10;52.60;;;;;;5018271;28;20522;-56
2021/03/02 15:12:09;;;;;;;11.30;3.40;;;18.10;52.30;;;;;;5017718;28;20045;-56
2021/03/02 15:14:39;;;;;;;10.15;3.42;;;18.10;52.80;;;;;;5024856;28;20485;-57
2021/03/02 15:17:06;;;;;;;11.35;3.42;;;18.10;52.70;;;;;;5025824;28;20034;-57
2021/03/02 15:19:34;;;;;;;12.13;3.55;;;18.10;52.60;;;;;;5037512;28;20446;-55
2021/03/02 15:22:03;;;;;;;8.07;3.25;;;18.10;52.70;;;;;;5033260;28;20118;-55
2021/03/02 15:24:29;;;;;;;8.30;3.15;;;18.10;52.80;;;;;;5039849;28;20060;-57
2021/03/02 15:26:55;;;;;;;9.00;3.20;;;18.10;52.70;;;;;;5034927;28;20036;-56